createdAt,value
2024-01-05T00:01:15.569Z,-3.86
2024-01-05T00:06:19.144Z,-3.82
2024-01-05T00:11:23.206Z,-3.79
2024-01-05T00:16:26.472Z,-3.79
2024-01-05T00:21:30.292Z,-3.76
2024-01-05T00:26:33.828Z,-3.76
2024-01-05T00:31:36.755Z,-3.80
2024-01-05T00:36:40.318Z,-3.81
2024-01-05T00:41:46.714Z,-3.87
2024-01-05T00:46:49.590Z,-3.90
2024-01-05T00:51:52.663Z,-3.90
2024-01-05T00:56:56.121Z,-3.93
2024-01-05T01:01:59.016Z,-3.96
2024-01-05T01:07:02.291Z,-3.91
2024-01-05T01:12:05.803Z,-3.93
2024-01-05T01:17:08.930Z,-3.90
2024-01-05T01:22:12.080Z,-3.89
2024-01-05T01:27:16.146Z,-3.89
2024-01-05T01:32:19.449Z,-3.86
2024-01-05T01:37:22.926Z,-3.82
2024-01-05T01:42:26.393Z,-3.87
2024-01-05T01:47:30.201Z,-3.93
2024-01-05T01:52:34.193Z,-3.93
2024-01-05T01:57:38.608Z,-3.99
2024-01-05T02:02:42.399Z,-4.06
2024-01-05T02:07:45.863Z,-4.11
2024-01-05T02:12:49.185Z,-4.07
2024-01-05T02:17:52.765Z,-4.08
2024-01-05T02:23:03.806Z,-4.10
2024-01-05T02:28:07.014Z,-4.11
2024-01-05T02:33:10.622Z,-4.11
2024-01-05T02:38:14.004Z,-4.09
2024-01-05T02:43:17.143Z,-4.02
2024-01-05T02:48:20.716Z,-3.99
2024-01-05T02:53:24.107Z,-4.02
2024-01-05T02:58:27.268Z,-3.98
2024-01-05T03:03:30.695Z,-3.93
2024-01-05T03:08:34.343Z,-3.92
2024-01-05T03:13:38.095Z,-3.87
2024-01-05T03:18:41.736Z,-3.83
2024-01-05T03:23:45.181Z,-3.86
2024-01-05T03:28:48.257Z,-3.83
2024-01-05T03:33:51.522Z,-3.78
2024-01-05T03:38:55.466Z,-3.80
2024-01-05T03:43:58.556Z,-3.80
2024-01-05T03:49:02.178Z,-3.76
2024-01-05T03:54:05.425Z,-3.76
2024-01-05T03:59:10.301Z,-3.75
2024-01-05T04:04:14.463Z,-3.72
2024-01-05T04:09:17.723Z,-3.73
2024-01-05T04:14:20.761Z,-3.71
2024-01-05T04:19:24.205Z,-3.68
2024-01-05T04:24:27.408Z,-3.71
2024-01-05T04:29:30.685Z,-3.71
2024-01-05T04:34:53.817Z,-3.69
2024-01-05T04:39:57.193Z,-3.71
2024-01-05T04:45:00.175Z,-3.70
2024-01-05T04:50:06.063Z,-3.65
2024-01-05T04:55:28.963Z,-3.69
2024-01-05T05:00:32.020Z,-3.74
2024-01-05T05:05:34.997Z,-3.77
2024-01-05T05:10:41.178Z,-3.84
2024-01-05T05:15:44.313Z,-3.86
2024-01-05T05:20:47.552Z,-3.83
2024-01-05T05:25:50.670Z,-3.86
2024-01-05T05:30:54.080Z,-3.90
2024-01-05T05:35:57.227Z,-3.86
2024-01-05T05:41:00.303Z,-3.93
2024-01-05T05:46:03.543Z,-3.94
2024-01-05T05:51:06.500Z,-3.94
2024-01-05T05:56:10.513Z,-3.91
2024-01-05T06:01:14.520Z,-3.93
2024-01-05T06:06:22.995Z,-3.93
2024-01-05T06:11:28.058Z,-3.88
2024-01-05T06:16:31.979Z,-3.92
2024-01-05T06:21:35.250Z,-3.96
2024-01-05T06:26:38.801Z,-3.92
2024-01-05T06:31:42.413Z,-3.92
2024-01-05T06:36:45.707Z,-3.97
2024-01-05T06:41:48.541Z,-3.96
2024-01-05T06:46:51.858Z,-3.98
2024-01-05T06:51:54.786Z,-4.04
2024-01-05T06:56:57.954Z,-4.05
2024-01-05T07:02:01.445Z,-4.08
2024-01-05T07:07:04.409Z,-4.15
2024-01-05T07:12:07.678Z,-4.16
2024-01-05T07:17:10.716Z,-4.15
2024-01-05T07:22:13.759Z,-4.19
2024-01-05T07:27:18.178Z,-4.22
2024-01-05T07:32:22.173Z,-4.16
2024-01-05T07:37:25.798Z,-4.17
2024-01-05T07:42:29.129Z,-4.16
2024-01-05T07:47:52.406Z,-4.06
2024-01-05T07:53:03.748Z,-4.04
2024-01-05T07:58:07.017Z,-4.01
2024-01-05T08:03:11.547Z,-3.88
2024-01-05T08:08:15.502Z,-3.82
2024-01-05T08:13:20.542Z,-3.85
2024-01-05T08:18:23.890Z,-3.93
2024-01-05T08:23:27.293Z,-3.95
2024-01-05T08:28:31.480Z,-3.96
2024-01-05T08:33:34.698Z,-3.95
2024-01-05T08:38:38.190Z,-3.95
2024-01-05T08:43:45.513Z,-3.96
2024-01-05T08:48:49.990Z,-3.94
2024-01-05T08:53:53.855Z,-4.00
2024-01-05T08:58:56.976Z,-4.01
2024-01-05T09:04:00.474Z,-3.92
2024-01-05T09:09:04.270Z,-3.83
2024-01-05T09:14:08.236Z,-3.77
2024-01-05T09:19:11.158Z,-3.69
2024-01-05T09:24:14.385Z,-3.66
2024-01-05T09:29:34.377Z,-3.66
2024-01-05T09:34:37.661Z,-3.62
2024-01-05T09:39:40.915Z,-3.53
2024-01-05T09:44:52.953Z,-3.54
2024-01-05T09:49:58.448Z,-3.55
2024-01-05T09:55:18.166Z,-3.56
2024-01-05T10:00:22.197Z,-3.51
2024-01-05T10:05:26.555Z,-3.53
2024-01-05T10:10:53.947Z,-3.57
2024-01-05T10:16:00.678Z,-3.58
2024-01-05T10:21:11.159Z,-3.62
2024-01-05T10:26:18.526Z,-3.69
2024-01-05T10:31:22.192Z,-3.78
2024-01-05T10:36:28.191Z,-3.78
2024-01-05T10:41:31.242Z,-3.77
2024-01-05T10:46:36.102Z,-3.58
2024-01-05T10:51:40.303Z,-3.31
2024-01-05T10:56:46.189Z,-3.10
2024-01-05T11:01:50.446Z,-2.99
2024-01-05T11:06:55.455Z,-3.11
2024-01-05T11:12:37.469Z,-3.30
2024-01-05T11:18:14.587Z,-3.32
2024-01-05T11:23:18.486Z,-3.29
2024-01-05T11:28:39.511Z,-3.31
2024-01-05T11:33:51.439Z,-3.33
2024-01-05T11:38:54.498Z,-3.24
2024-01-05T11:43:57.878Z,-3.07
2024-01-05T11:49:01.278Z,-3.04
2024-01-05T11:54:04.529Z,-3.02
2024-01-05T11:59:08.229Z,-3.09
2024-01-05T12:04:11.403Z,-3.14
2024-01-05T12:09:14.474Z,-3.12
2024-01-05T12:14:27.724Z,-3.01
2024-01-05T12:19:31.214Z,-3.00
2024-01-05T12:24:35.020Z,-3.07
2024-01-05T12:29:38.935Z,-3.04
2024-01-05T12:34:42.360Z,-2.99
2024-01-05T12:39:45.523Z,-3.01
2024-01-05T12:44:48.675Z,-3.08
2024-01-05T12:49:52.162Z,-3.19
2024-01-05T12:54:55.493Z,-3.31
2024-01-05T13:00:23.872Z,-3.42
2024-01-05T13:05:35.879Z,-3.41
2024-01-05T13:10:40.970Z,-3.48
2024-01-05T13:15:44.338Z,-3.57
2024-01-05T13:20:48.024Z,-3.66
2024-01-05T13:25:52.178Z,-3.72
2024-01-05T13:30:55.218Z,-3.75
2024-01-05T13:35:58.837Z,-3.84
2024-01-05T13:41:02.069Z,-3.97
2024-01-05T13:46:05.666Z,-4.09
2024-01-05T13:51:08.736Z,-4.14
2024-01-05T13:56:11.908Z,-4.17
2024-01-05T14:01:15.044Z,-4.28
2024-01-05T14:06:18.046Z,-4.42
2024-01-05T14:11:21.161Z,-4.54
2024-01-05T14:16:24.435Z,-4.61
2024-01-05T14:21:27.764Z,-4.66
2024-01-05T14:26:30.834Z,-4.73
2024-01-05T14:31:37.544Z,-4.82
2024-01-05T14:36:40.705Z,-4.95
2024-01-05T14:41:43.949Z,-5.00
2024-01-05T14:46:47.042Z,-5.00
2024-01-05T14:51:50.656Z,-5.07
2024-01-05T14:56:53.679Z,-5.15
2024-01-05T15:01:59.962Z,-5.17
2024-01-05T15:07:03.557Z,-5.10
2024-01-05T15:12:06.898Z,-5.12
2024-01-05T15:17:11.778Z,-5.14
2024-01-05T15:22:14.855Z,-5.18
2024-01-05T15:27:18.159Z,-5.16
2024-01-05T15:32:21.579Z,-5.14
2024-01-05T15:37:45.237Z,-5.14
2024-01-05T15:43:08.383Z,-5.17
2024-01-05T15:48:31.558Z,-5.21
2024-01-05T15:53:57.619Z,-5.14
2024-01-05T15:59:22.761Z,-5.09
2024-01-05T16:04:45.963Z,-5.07
2024-01-05T16:10:09.591Z,-5.10
2024-01-05T16:15:32.646Z,-5.13
2024-01-05T16:20:59.328Z,-5.05
2024-01-05T16:26:22.582Z,-4.98
2024-01-05T16:31:46.109Z,-4.94
2024-01-05T16:37:09.338Z,-4.96
2024-01-05T16:42:32.513Z,-5.00
2024-01-05T16:47:55.638Z,-4.97
2024-01-05T16:53:18.990Z,-4.94
2024-01-05T16:58:41.954Z,-4.94
2024-01-05T17:04:05.018Z,-4.94
2024-01-05T17:09:28.249Z,-4.92
2024-01-05T17:14:32.120Z,-4.80
2024-01-05T17:19:36.577Z,-4.77
2024-01-05T17:24:39.931Z,-4.79
2024-01-05T17:29:45.283Z,-4.79
2024-01-05T17:34:48.554Z,-4.71
2024-01-05T17:39:51.892Z,-4.58
2024-01-05T17:44:55.280Z,-4.52
2024-01-05T17:49:59.592Z,-4.58
2024-01-05T17:55:02.857Z,-4.62
2024-01-05T18:00:08.080Z,-4.66
2024-01-05T18:05:11.409Z,-4.68
2024-01-05T18:10:14.780Z,-4.54
2024-01-05T18:15:18.028Z,-4.47
2024-01-05T18:20:21.238Z,-4.44
2024-01-05T18:25:24.231Z,-4.46
2024-01-05T18:30:27.603Z,-4.43
2024-01-05T18:35:31.914Z,-4.45
2024-01-05T18:40:35.323Z,-4.45
2024-01-05T18:45:38.872Z,-4.49
2024-01-05T18:50:42.621Z,-4.50
2024-01-05T18:55:45.703Z,-4.52
2024-01-05T19:00:49.559Z,-4.54
2024-01-05T19:05:53.358Z,-4.43
2024-01-05T19:10:56.687Z,-4.37
2024-01-05T19:15:59.874Z,-4.35
2024-01-05T19:21:04.260Z,-4.36
2024-01-05T19:26:07.902Z,-4.39
2024-01-05T19:31:11.182Z,-4.42
2024-01-05T19:36:16.704Z,-4.40
2024-01-05T19:41:20.248Z,-4.30
2024-01-05T19:46:23.781Z,-4.25
2024-01-05T19:51:26.953Z,-4.26
2024-01-05T19:56:29.997Z,-4.27
2024-01-05T20:01:33.276Z,-4.22
2024-01-05T20:06:39.543Z,-4.14
2024-01-05T20:11:43.599Z,-4.11
2024-01-05T20:16:48.171Z,-4.07
2024-01-05T20:21:52.057Z,-4.09
2024-01-05T20:27:15.159Z,-4.13
2024-01-05T20:32:18.646Z,-4.11
2024-01-05T20:37:22.576Z,-4.03
2024-01-05T20:42:25.660Z,-4.01
2024-01-05T20:47:28.942Z,-3.99
2024-01-05T20:52:34.090Z,-4.01
2024-01-05T20:57:38.109Z,-4.05
2024-01-05T21:02:41.352Z,-4.07
2024-01-05T21:07:44.523Z,-3.97
2024-01-05T21:12:47.640Z,-3.90
2024-01-05T21:17:51.289Z,-3.87
2024-01-05T21:22:56.577Z,-3.90
2024-01-05T21:28:00.806Z,-3.92
2024-01-05T21:33:05.807Z,-3.94
2024-01-05T21:38:09.361Z,-3.94
2024-01-05T21:43:13.354Z,-3.93
2024-01-05T21:48:16.609Z,-3.95
2024-01-05T21:53:19.887Z,-3.95
2024-01-05T21:58:23.073Z,-3.99
2024-01-05T22:03:26.407Z,-3.87
2024-01-05T22:08:29.402Z,-3.79
2024-01-05T22:13:32.615Z,-3.76
2024-01-05T22:18:38.443Z,-3.77
2024-01-05T22:23:42.217Z,-3.81
2024-01-05T22:28:44.983Z,-3.78
2024-01-05T22:33:48.312Z,-3.76
2024-01-05T22:38:51.442Z,-3.71
2024-01-05T22:43:54.886Z,-3.70
2024-01-05T22:48:57.973Z,-3.72
2024-01-05T22:54:21.072Z,-3.75
2024-01-05T22:59:44.676Z,-3.77
2024-01-05T23:04:53.991Z,-3.67
2024-01-05T23:10:17.922Z,-3.60
2024-01-05T23:15:40.879Z,-3.60
2024-01-05T23:21:03.925Z,-3.62
2024-01-05T23:26:34.290Z,-3.65
2024-01-05T23:32:02.905Z,-3.58
2024-01-05T23:37:06.062Z,-3.52
2024-01-05T23:42:09.409Z,-3.56
2024-01-05T23:47:12.656Z,-3.62
2024-01-05T23:52:15.699Z,-3.62
2024-01-05T23:57:18.963Z,-3.51
